createdAt,value
2018-03-21T00:01:48.459Z,29.77
2018-03-21T00:04:17.924Z,28.20
2018-03-21T00:06:47.020Z,27.50
2018-03-21T00:09:15.711Z,25.90
2018-03-21T00:11:44.353Z,18.83
2018-03-21T00:14:13.321Z,16.40
2018-03-21T00:16:43.712Z,23.53
2018-03-21T00:19:12.335Z,26.77
2018-03-21T00:21:41.802Z,16.10
2018-03-21T00:24:10.591Z,14.40
2018-03-21T00:26:39.236Z,12.27
2018-03-21T00:29:07.962Z,14.03
2018-03-21T00:31:36.648Z,12.47
2018-03-21T00:34:05.335Z,13.10
2018-03-21T00:36:34.120Z,12.27
2018-03-21T00:39:02.805Z,12.90
2018-03-21T00:41:31.447Z,12.60
2018-03-21T00:44:00.176Z,13.07
2018-03-21T00:46:28.863Z,13.53
2018-03-21T00:48:57.440Z,12.63
2018-03-21T00:51:26.193Z,13.43
2018-03-21T00:53:54.920Z,13.97
2018-03-21T00:56:23.465Z,17.47
2018-03-21T00:58:52.193Z,17.03
2018-03-21T01:01:21.690Z,19.07
2018-03-21T01:03:50.336Z,18.07
2018-03-21T01:06:19.062Z,15.77
2018-03-21T01:08:47.747Z,18.40
2018-03-21T01:11:16.433Z,22.93
2018-03-21T01:13:45.228Z,16.33
2018-03-21T01:16:13.894Z,16.17
2018-03-21T01:18:42.538Z,15.40
2018-03-21T01:21:12.202Z,14.73
2018-03-21T01:23:40.885Z,15.10
2018-03-21T01:26:09.579Z,14.70
2018-03-21T01:28:38.313Z,14.00
2018-03-21T01:31:07.763Z,15.07
2018-03-21T01:33:36.400Z,14.70
2018-03-21T01:36:05.139Z,15.20
2018-03-21T01:38:33.882Z,15.17
2018-03-21T01:41:02.615Z,16.10
2018-03-21T01:43:31.542Z,17.10
2018-03-21T01:46:01.013Z,17.13
2018-03-21T01:48:29.708Z,15.50
2018-03-21T01:50:59.093Z,16.17
2018-03-21T01:53:27.778Z,14.47
2018-03-21T01:55:56.464Z,14.80
2018-03-21T01:58:25.567Z,18.80
2018-03-21T02:00:54.253Z,17.57
2018-03-21T02:03:22.829Z,16.10
2018-03-21T02:05:52.479Z,16.57
2018-03-21T02:08:22.154Z,15.53
2018-03-21T02:10:50.791Z,14.47
2018-03-21T02:13:20.286Z,14.40
2018-03-21T02:15:49.637Z,13.77
2018-03-21T02:18:18.225Z,14.40
2018-03-21T02:20:47.316Z,13.67
2018-03-21T02:23:15.957Z,14.43
2018-03-21T02:25:44.687Z,14.67
2018-03-21T02:28:13.482Z,14.17
2018-03-21T02:30:42.169Z,14.87
2018-03-21T02:33:10.802Z,17.33
2018-03-21T02:35:40.768Z,15.53
2018-03-21T02:38:09.411Z,15.40
2018-03-21T02:40:38.140Z,18.60
2018-03-21T02:43:07.134Z,20.70
2018-03-21T02:45:35.711Z,20.73
2018-03-21T02:48:04.434Z,22.17
2018-03-21T02:50:33.905Z,20.80
2018-03-21T02:53:02.596Z,20.23
2018-03-21T02:55:31.241Z,17.93
2018-03-21T02:58:00.010Z,17.67
2018-03-21T03:00:28.746Z,17.53
2018-03-21T03:02:57.434Z,16.20
2018-03-21T03:05:26.229Z,15.83
2018-03-21T03:07:54.905Z,15.57
2018-03-21T03:10:23.599Z,14.53
2018-03-21T03:12:52.385Z,14.00
2018-03-21T03:15:20.970Z,15.27
2018-03-21T03:17:49.599Z,14.33
2018-03-21T03:20:19.319Z,13.13
2018-03-21T03:22:48.048Z,13.50
2018-03-21T03:25:16.744Z,13.60
2018-03-21T03:27:45.825Z,12.57
2018-03-21T03:30:14.513Z,12.47
2018-03-21T03:32:43.160Z,12.40
2018-03-21T03:35:12.026Z,12.57
2018-03-21T03:37:41.491Z,11.30
2018-03-21T03:40:10.176Z,10.73
2018-03-21T03:42:38.775Z,11.43
2018-03-21T03:45:07.449Z,11.10
2018-03-21T03:47:36.136Z,10.27
2018-03-21T03:50:04.920Z,11.23
2018-03-21T03:52:33.605Z,10.70
2018-03-21T03:55:02.271Z,9.50
2018-03-21T03:57:31.035Z,9.90
2018-03-21T04:00:00.486Z,10.73
2018-03-21T04:02:29.173Z,11.43
2018-03-21T04:04:57.868Z,11.60
2018-03-21T04:07:26.643Z,12.60
2018-03-21T04:09:55.428Z,11.40
2018-03-21T04:12:24.123Z,10.17
2018-03-21T04:14:52.762Z,11.47
2018-03-21T04:17:21.495Z,10.60
2018-03-21T04:19:50.488Z,14.23
2018-03-21T04:22:19.273Z,12.50
2018-03-21T04:24:47.825Z,15.13
2018-03-21T04:27:16.705Z,14.27
2018-03-21T04:29:45.429Z,14.13
2018-03-21T04:32:14.065Z,25.43
2018-03-21T04:34:42.801Z,33.73
2018-03-21T04:37:11.485Z,27.10
2018-03-21T04:39:40.119Z,23.23
2018-03-21T04:42:09.586Z,20.83
2018-03-21T04:44:38.304Z,13.37
2018-03-21T04:47:08.077Z,12.43
2018-03-21T04:49:36.760Z,11.10
2018-03-21T04:52:05.408Z,10.90
2018-03-21T04:54:34.130Z,11.27
2018-03-21T04:57:03.069Z,10.07
2018-03-21T04:59:32.538Z,12.70
2018-03-21T05:02:01.212Z,12.60
2018-03-21T05:04:30.102Z,11.93
2018-03-21T05:06:58.788Z,14.53
2018-03-21T05:09:27.474Z,11.83
2018-03-21T05:11:56.466Z,9.63
2018-03-21T05:14:25.095Z,9.13
2018-03-21T05:16:54.562Z,9.57
2018-03-21T05:19:23.555Z,9.33
2018-03-21T05:21:53.164Z,9.40
2018-03-21T05:24:21.918Z,9.50
2018-03-21T05:26:51.407Z,9.67
2018-03-21T05:29:20.856Z,8.37
2018-03-21T05:31:49.432Z,13.67
2018-03-21T05:34:18.266Z,10.57
2018-03-21T05:36:47.729Z,8.97
2018-03-21T05:39:16.370Z,10.10
2018-03-21T05:41:45.872Z,10.90
2018-03-21T05:44:14.606Z,8.23
2018-03-21T05:46:43.252Z,7.57
2018-03-21T05:49:13.169Z,8.73
2018-03-21T05:51:41.892Z,9.77
2018-03-21T05:54:10.576Z,11.00
2018-03-21T05:56:39.309Z,8.67
2018-03-21T05:59:07.886Z,8.10
2018-03-21T06:01:36.433Z,7.63
2018-03-21T06:04:05.354Z,7.60
2018-03-21T06:06:33.903Z,7.03
2018-03-21T06:09:02.476Z,7.10
2018-03-21T06:11:31.076Z,8.10
2018-03-21T06:13:59.631Z,9.17
2018-03-21T06:16:28.953Z,12.00
2018-03-21T06:18:57.654Z,11.60
2018-03-21T06:21:26.375Z,20.30
2018-03-21T06:23:54.934Z,12.67
2018-03-21T06:26:23.538Z,9.63
2018-03-21T06:28:52.084Z,12.30
2018-03-21T06:31:20.629Z,28.90
2018-03-21T06:33:50.100Z,12.37
2018-03-21T06:36:18.664Z,15.77
2018-03-21T06:38:47.241Z,11.33
2018-03-21T06:41:15.840Z,12.57
2018-03-21T06:43:44.398Z,15.53
2018-03-21T06:46:12.953Z,10.27
2018-03-21T06:48:41.985Z,10.40
2018-03-21T06:51:10.671Z,10.60
2018-03-21T06:53:39.357Z,9.30
2018-03-21T06:56:08.141Z,11.07
2018-03-21T06:58:36.827Z,8.10
2018-03-21T07:01:05.377Z,7.93
2018-03-21T07:03:33.988Z,9.87
2018-03-21T07:06:02.542Z,10.20
2018-03-21T07:08:31.215Z,11.17
2018-03-21T07:11:00.182Z,11.17
2018-03-21T07:13:51.120Z,10.57
2018-03-21T07:16:38.485Z,11.57
2018-03-21T07:19:07.133Z,12.17
2018-03-21T07:21:35.857Z,17.60
2018-03-21T07:24:04.507Z,14.20
2018-03-21T07:26:33.186Z,13.57
2018-03-21T07:29:01.829Z,12.63
2018-03-21T07:31:30.871Z,13.33
2018-03-21T07:33:59.425Z,12.23
2018-03-21T07:36:28.894Z,13.93
2018-03-21T07:38:57.888Z,13.77
2018-03-21T07:41:26.577Z,14.47
2018-03-21T07:43:55.259Z,12.53
2018-03-21T07:46:25.074Z,13.67
2018-03-21T07:48:53.653Z,15.20
2018-03-21T07:51:22.348Z,15.13
2018-03-21T07:53:51.033Z,14.50
2018-03-21T07:56:19.718Z,13.27
2018-03-21T07:58:48.711Z,13.27
2018-03-21T08:01:17.485Z,13.07
2018-03-21T08:03:46.130Z,12.60
2018-03-21T08:06:15.454Z,12.27
2018-03-21T08:08:44.372Z,12.07
2018-03-21T08:11:12.924Z,13.23
2018-03-21T08:13:41.473Z,12.13
2018-03-21T08:16:10.853Z,12.47
2018-03-21T08:18:39.404Z,13.20
2018-03-21T08:21:07.961Z,14.23
2018-03-21T08:23:36.561Z,13.07
2018-03-21T08:26:05.141Z,11.83
2018-03-21T08:28:33.693Z,14.30
2018-03-21T08:31:03.062Z,12.87
2018-03-21T08:33:31.618Z,13.97
2018-03-21T08:36:00.202Z,13.53
2018-03-21T08:38:28.950Z,14.40
2018-03-21T08:40:58.269Z,16.07
2018-03-21T08:43:26.870Z,16.73
2018-03-21T08:45:55.665Z,18.13
2018-03-21T08:48:24.222Z,19.07
2018-03-21T08:50:52.769Z,20.17
2018-03-21T08:53:21.706Z,19.00
2018-03-21T08:55:50.264Z,20.27
2018-03-21T08:58:19.585Z,18.33
2018-03-21T09:00:48.581Z,20.17
2018-03-21T09:03:17.202Z,19.93
2018-03-21T09:05:45.758Z,20.07
2018-03-21T09:08:15.186Z,19.50
2018-03-21T09:10:43.736Z,18.07
2018-03-21T09:13:12.283Z,16.93
2018-03-21T09:15:41.113Z,17.50
2018-03-21T09:18:09.669Z,18.73
2018-03-21T09:20:38.222Z,17.73
2018-03-21T09:23:07.588Z,19.87
2018-03-21T09:25:36.141Z,44.03
2018-03-21T09:28:04.693Z,19.70
2018-03-21T09:30:34.251Z,20.80
2018-03-21T09:33:02.806Z,20.33
2018-03-21T09:35:31.356Z,20.33
2018-03-21T09:38:00.726Z,21.03
2018-03-21T09:40:29.280Z,19.40
2018-03-21T09:42:57.842Z,19.33
2018-03-21T09:45:26.438Z,20.87
2018-03-21T09:47:54.998Z,21.50
2018-03-21T09:50:24.317Z,20.83
2018-03-21T09:52:53.133Z,18.03
2018-03-21T09:55:21.683Z,19.17
2018-03-21T09:57:50.242Z,20.60
2018-03-21T10:00:19.807Z,19.57
2018-03-21T10:02:48.362Z,16.13
2018-03-21T10:05:16.917Z,18.60
2018-03-21T10:07:46.586Z,17.13
2018-03-21T10:10:15.140Z,17.10
2018-03-21T10:12:43.697Z,17.87
2018-03-21T10:15:13.101Z,15.07
2018-03-21T10:17:42.422Z,15.83
2018-03-21T10:20:10.972Z,14.33
2018-03-21T10:22:39.573Z,14.73
2018-03-21T10:25:08.129Z,15.60
2018-03-21T10:27:36.684Z,14.47
2018-03-21T10:30:05.476Z,15.83
2018-03-21T10:32:34.065Z,14.47
2018-03-21T10:35:02.622Z,18.30
2018-03-21T10:37:31.233Z,18.13
2018-03-21T10:39:59.790Z,18.47
2018-03-21T10:42:29.109Z,19.00
2018-03-21T10:44:57.755Z,18.80
2018-03-21T10:47:27.133Z,18.80
2018-03-21T10:49:55.824Z,18.80
2018-03-21T10:52:24.766Z,17.60
2018-03-21T10:54:54.092Z,17.87
2018-03-21T10:57:22.653Z,17.97
2018-03-21T10:59:51.258Z,18.20
2018-03-21T11:02:19.891Z,19.00
2018-03-21T11:04:48.444Z,18.50
2018-03-21T11:07:19.692Z,19.50
2018-03-21T11:09:48.249Z,19.57
2018-03-21T11:12:16.814Z,19.40
2018-03-21T11:14:45.650Z,21.83
2018-03-21T11:17:14.197Z,19.80
2018-03-21T11:19:42.757Z,19.10
2018-03-21T11:22:12.120Z,21.80
2018-03-21T11:24:40.673Z,20.50
2018-03-21T11:27:09.222Z,20.33
2018-03-21T11:29:38.988Z,19.70
2018-03-21T11:32:07.537Z,23.43
2018-03-21T11:34:36.088Z,24.00
2018-03-21T11:37:04.689Z,26.90
2018-03-21T11:39:33.243Z,24.93
2018-03-21T11:42:01.830Z,27.00
2018-03-21T11:44:30.439Z,31.73
2018-03-21T11:46:59.178Z,27.43
2018-03-21T11:49:27.762Z,27.63
2018-03-21T11:51:56.358Z,28.80
2018-03-21T11:54:25.134Z,35.03
2018-03-21T11:56:53.715Z,32.50
2018-03-21T11:59:22.400Z,35.93
2018-03-21T12:01:51.093Z,34.37
2018-03-21T12:04:19.710Z,34.40
2018-03-21T12:06:49.484Z,36.83
2018-03-21T12:09:18.124Z,35.90
2018-03-21T12:11:46.856Z,35.70
2018-03-21T12:14:15.851Z,33.67
2018-03-21T12:16:44.633Z,34.27
2018-03-21T12:19:13.226Z,39.77
2018-03-21T12:21:42.138Z,40.83
2018-03-21T12:24:10.899Z,51.97
2018-03-21T12:26:39.585Z,28.53
2018-03-21T12:29:08.517Z,34.80
2018-03-21T12:31:37.933Z,27.80
2018-03-21T12:34:06.662Z,31.03
2018-03-21T12:36:35.619Z,27.77
2018-03-21T12:39:04.450Z,29.60
2018-03-21T12:41:33.137Z,27.77
2018-03-21T12:44:02.224Z,28.17
2018-03-21T12:46:30.914Z,27.03
2018-03-21T12:48:59.476Z,27.53
2018-03-21T12:51:28.289Z,25.90
2018-03-21T12:53:57.021Z,25.67
2018-03-21T12:56:25.784Z,25.03
2018-03-21T12:58:54.804Z,26.47
2018-03-21T13:01:24.258Z,25.87
2018-03-21T13:03:52.944Z,25.73
2018-03-21T13:06:21.909Z,25.00
2018-03-21T13:08:50.649Z,25.00
2018-03-21T13:11:20.233Z,24.33
2018-03-21T13:13:49.108Z,23.83
2018-03-21T13:16:17.719Z,23.67
2018-03-21T13:18:47.213Z,23.87
2018-03-21T13:21:16.202Z,25.00
2018-03-21T13:23:44.888Z,24.60
2018-03-21T13:26:13.464Z,25.63
2018-03-21T13:28:42.467Z,24.60
2018-03-21T13:31:11.111Z,23.67
2018-03-21T13:33:39.839Z,24.50
2018-03-21T13:36:08.576Z,21.73
2018-03-21T13:38:37.310Z,23.93
2018-03-21T13:41:05.996Z,24.57
2018-03-21T13:43:34.881Z,24.80
2018-03-21T13:46:03.570Z,23.37
2018-03-21T13:48:32.317Z,24.70
2018-03-21T13:51:01.051Z,25.47
2018-03-21T13:53:29.753Z,22.77
2018-03-21T13:55:59.240Z,24.13
2018-03-21T13:58:28.024Z,23.83
2018-03-21T14:00:56.710Z,22.30
2018-03-21T14:03:25.349Z,24.10
2018-03-21T14:05:54.239Z,24.60
2018-03-21T14:08:23.690Z,23.10
2018-03-21T14:10:52.277Z,24.03
2018-03-21T14:13:21.066Z,21.90
2018-03-21T14:15:49.624Z,22.00
2018-03-21T14:18:18.382Z,20.90
2018-03-21T14:20:47.026Z,46.53
2018-03-21T14:23:15.751Z,21.87
2018-03-21T14:25:45.203Z,19.43
2018-03-21T14:28:14.158Z,20.67
2018-03-21T14:30:42.882Z,21.23
2018-03-21T14:33:11.515Z,22.60
2018-03-21T14:35:40.889Z,22.87
2018-03-21T14:38:09.648Z,21.57
2018-03-21T14:40:38.241Z,23.60
2018-03-21T14:43:06.926Z,21.30
2018-03-21T14:45:36.433Z,23.47
2018-03-21T14:48:05.218Z,23.10
2018-03-21T14:50:33.914Z,22.63
2018-03-21T14:53:02.590Z,19.90
2018-03-21T14:55:31.141Z,21.63
2018-03-21T14:57:59.870Z,21.30
2018-03-21T15:00:28.432Z,23.43
2018-03-21T15:02:57.079Z,22.93
2018-03-21T15:05:26.550Z,23.53
2018-03-21T15:07:55.220Z,23.60
2018-03-21T15:10:23.809Z,22.03
2018-03-21T15:12:52.750Z,24.00
2018-03-21T15:15:22.200Z,24.83
2018-03-21T15:17:50.887Z,26.03
2018-03-21T15:20:19.728Z,24.97
2018-03-21T15:22:48.465Z,25.37
2018-03-21T15:25:17.151Z,27.60
2018-03-21T15:27:46.341Z,27.77
2018-03-21T15:30:15.140Z,25.90
2018-03-21T15:32:43.807Z,24.63
2018-03-21T15:35:12.603Z,25.97
2018-03-21T15:37:41.152Z,25.27
2018-03-21T15:40:09.874Z,25.53
2018-03-21T15:42:38.566Z,25.83
2018-03-21T15:45:07.346Z,25.50
2018-03-21T15:47:36.032Z,28.83
2018-03-21T15:50:04.773Z,29.47
2018-03-21T15:52:33.502Z,28.73
2018-03-21T15:55:02.188Z,27.40
2018-03-21T15:57:30.972Z,25.00
2018-03-21T15:59:59.620Z,24.93
2018-03-21T16:02:28.344Z,23.40
2018-03-21T16:04:57.305Z,27.43
2018-03-21T16:07:25.925Z,34.90
2018-03-21T16:09:54.473Z,48.73
2018-03-21T16:12:23.089Z,209.73
2018-03-21T16:14:51.776Z,116.60
2018-03-21T16:17:20.420Z,364.10
2018-03-21T16:19:49.037Z,106.93
2018-03-21T16:22:17.588Z,33.37
2018-03-21T16:24:46.319Z,28.37
2018-03-21T16:27:15.993Z,56.70
2018-03-21T16:29:44.670Z,367.43
2018-03-21T16:32:13.304Z,123.43
2018-03-21T16:34:42.772Z,253.93
2018-03-21T16:39:56.798Z,56.17
2018-03-21T16:42:25.504Z,49.23
2018-03-21T16:44:54.091Z,50.37
2018-03-21T16:47:23.247Z,61.97
2018-03-21T16:49:51.978Z,80.67
2018-03-21T16:52:20.660Z,68.53
2018-03-21T16:54:49.451Z,96.90
2018-03-21T16:57:18.017Z,120.43
2018-03-21T16:59:46.728Z,104.47
2018-03-21T17:02:15.882Z,104.07
2018-03-21T17:04:44.551Z,97.30
2018-03-21T17:07:13.283Z,102.70
2018-03-21T17:09:42.179Z,300.37
2018-03-21T17:12:10.744Z,206.37
2018-03-21T17:14:39.342Z,102.77
2018-03-21T17:17:08.190Z,80.37
2018-03-21T17:19:36.921Z,97.80
2018-03-21T17:22:05.627Z,100.67
2018-03-21T17:24:34.284Z,160.63
2018-03-21T17:27:02.982Z,193.60
2018-03-21T17:29:31.669Z,137.20
2018-03-21T17:32:00.353Z,129.33
2018-03-21T17:34:29.036Z,97.07
2018-03-21T17:36:57.617Z,82.90
2018-03-21T17:39:26.354Z,95.37
2018-03-21T17:41:55.710Z,84.57
2018-03-21T17:44:24.413Z,85.53
2018-03-21T17:46:53.490Z,86.77
2018-03-21T17:49:22.126Z,79.70
2018-03-21T17:51:50.856Z,88.17
2018-03-21T17:54:19.854Z,96.17
2018-03-21T17:56:48.437Z,83.47
2018-03-21T17:59:17.123Z,77.87
2018-03-21T18:01:45.812Z,95.47
2018-03-21T18:04:14.518Z,119.33
2018-03-21T18:06:44.007Z,91.93
2018-03-21T18:09:12.996Z,78.57
2018-03-21T18:11:41.572Z,78.87
2018-03-21T18:14:10.258Z,71.83
2018-03-21T18:16:39.423Z,76.50
2018-03-21T18:19:08.115Z,92.50
2018-03-21T18:21:36.780Z,79.63
2018-03-21T18:24:05.882Z,92.83
2018-03-21T18:26:34.664Z,94.90
2018-03-21T18:29:03.349Z,88.10
2018-03-21T18:31:32.451Z,63.17
2018-03-21T18:34:01.022Z,56.90
2018-03-21T18:36:29.614Z,62.47
2018-03-21T18:38:58.602Z,75.17
2018-03-21T18:41:27.158Z,69.93
2018-03-21T18:43:55.723Z,68.40
2018-03-21T18:46:24.459Z,68.73
2018-03-21T18:48:53.019Z,74.50
2018-03-21T18:51:21.574Z,77.97
2018-03-21T18:53:50.941Z,81.33
2018-03-21T18:56:19.616Z,92.67
2018-03-21T18:58:48.302Z,85.67
2018-03-21T19:01:17.087Z,103.30
2018-03-21T19:03:45.677Z,88.17
2018-03-21T19:06:14.360Z,87.90
2018-03-21T19:08:43.454Z,80.63
2018-03-21T19:11:12.039Z,79.83
2018-03-21T19:13:40.655Z,190.03
2018-03-21T19:16:10.380Z,157.03
2018-03-21T19:18:39.801Z,154.23
2018-03-21T19:21:08.516Z,237.30
2018-03-21T19:23:37.417Z,172.60
2018-03-21T19:26:05.997Z,112.60
2018-03-21T19:28:34.557Z,123.50
2018-03-21T19:31:03.175Z,160.47
2018-03-21T19:33:31.741Z,150.23
2018-03-21T19:36:00.302Z,193.33
2018-03-21T19:38:29.370Z,106.30
2018-03-21T19:40:58.787Z,77.50
2018-03-21T19:43:27.511Z,73.17
2018-03-21T19:45:56.454Z,113.17
2018-03-21T19:48:25.288Z,101.30
2018-03-21T19:50:54.004Z,217.97
2018-03-21T19:53:22.925Z,110.93
2018-03-21T19:55:51.619Z,67.47
2018-03-21T19:58:20.338Z,56.37
2018-03-21T20:00:49.134Z,57.80
2018-03-21T20:03:17.820Z,70.37
2018-03-21T20:05:46.483Z,82.93
2018-03-21T20:08:16.006Z,179.40
2018-03-21T20:10:44.652Z,93.23
2018-03-21T20:13:13.376Z,62.30
2018-03-21T20:15:42.170Z,64.57
2018-03-21T20:18:11.164Z,48.77
2018-03-21T20:20:39.849Z,84.23
2018-03-21T20:23:08.817Z,72.63
2018-03-21T20:25:37.528Z,85.00
2018-03-21T20:28:06.313Z,189.37
2018-03-21T20:30:35.047Z,99.00
2018-03-21T20:33:04.401Z,86.60
2018-03-21T20:35:33.086Z,70.97
2018-03-21T20:38:01.775Z,67.47
2018-03-21T20:40:30.519Z,128.87
2018-03-21T20:42:59.250Z,91.20
2018-03-21T20:45:27.930Z,72.60
2018-03-21T20:47:56.625Z,69.13
2018-03-21T20:50:25.307Z,73.80
2018-03-21T20:52:54.159Z,75.07
2018-03-21T20:55:22.880Z,73.43
2018-03-21T20:57:51.521Z,110.10
2018-03-21T21:00:20.349Z,52.47
2018-03-21T21:02:49.044Z,92.57
2018-03-21T21:05:18.223Z,62.93
2018-03-21T21:07:46.929Z,60.10
2018-03-21T21:10:15.716Z,60.67
2018-03-21T21:12:44.410Z,45.13
2018-03-21T21:15:13.145Z,46.37
2018-03-21T21:17:41.811Z,41.87
2018-03-21T21:20:11.277Z,25.17
2018-03-21T21:22:40.267Z,28.53
2018-03-21T21:25:08.858Z,26.80
2018-03-21T21:27:37.531Z,29.67
2018-03-21T21:30:06.531Z,29.47
2018-03-21T21:32:35.094Z,22.50
2018-03-21T21:35:03.735Z,27.00
2018-03-21T21:37:33.456Z,20.17
2018-03-21T21:40:02.876Z,22.30
2018-03-21T21:42:31.594Z,25.33
2018-03-21T21:45:00.618Z,22.47
2018-03-21T21:47:30.101Z,20.57
2018-03-21T21:49:58.663Z,18.77
2018-03-21T21:52:27.676Z,18.33
2018-03-21T21:54:56.363Z,20.30
2018-03-21T21:57:25.146Z,17.80
2018-03-21T21:59:53.837Z,18.83
2018-03-21T22:02:22.620Z,19.87
2018-03-21T22:04:51.302Z,18.67
2018-03-21T22:07:20.295Z,19.13
2018-03-21T22:09:48.962Z,18.83
2018-03-21T22:12:23.358Z,20.23
2018-03-21T22:14:51.859Z,19.30
2018-03-21T22:17:20.351Z,21.60
2018-03-21T22:19:49.129Z,18.17
2018-03-21T22:22:17.635Z,18.47
2018-03-21T22:24:46.124Z,18.30
2018-03-21T22:27:14.841Z,18.80
2018-03-21T22:29:43.327Z,17.37
2018-03-21T22:32:12.587Z,21.70
2018-03-21T22:34:41.128Z,21.13
2018-03-21T22:37:10.383Z,19.73
2018-03-21T22:39:38.861Z,19.30
2018-03-21T22:42:07.405Z,19.30
2018-03-21T22:44:35.895Z,21.03
2018-03-21T22:47:04.499Z,19.40
2018-03-21T22:49:33.483Z,15.97
2018-03-21T22:52:01.981Z,15.57
2018-03-21T22:54:30.647Z,15.73
2018-03-21T22:56:59.799Z,15.53
2018-03-21T22:59:29.048Z,16.63
2018-03-21T23:01:57.685Z,16.80
2018-03-21T23:04:27.344Z,15.13
2018-03-21T23:06:56.030Z,16.03
2018-03-21T23:09:24.664Z,15.43
2018-03-21T23:11:54.130Z,14.47
2018-03-21T23:14:22.799Z,17.00
2018-03-21T23:16:51.485Z,16.47
2018-03-21T23:19:20.281Z,17.77
2018-03-21T23:21:48.926Z,16.80
2018-03-21T23:24:17.647Z,18.73
2018-03-21T23:26:48.110Z,18.10
2018-03-21T23:29:17.581Z,18.07
2018-03-21T23:31:46.267Z,17.07
2018-03-21T23:34:15.113Z,17.90
2018-03-21T23:36:43.846Z,16.93
2018-03-21T23:39:12.533Z,18.53
2018-03-21T23:41:41.270Z,16.53
2018-03-21T23:44:10.004Z,15.13
2018-03-21T23:46:39.556Z,16.07
2018-03-21T23:49:09.021Z,16.83
2018-03-21T23:51:37.695Z,18.47
2018-03-21T23:54:06.380Z,18.37
2018-03-21T23:56:35.176Z,17.83
2018-03-21T23:59:03.862Z,17.13
